Time;durP1;ratioP1;P1;durP2;ratioP2;P2;SDS_P1;SDS_P2;PMS_P1;PMS_P2;Temp;Humidity;BMP_temperature;BMP_pressure;BME280_temperature;BME280_humidity;BME280_pressure;Samples;Min_cycle;Max_cycle;Signal;HPM_P1;HPM_P2
2021/11/19 00:02:12;;;;;;;53.88;16.63;;;8.00;99.90;;;;;;5069408;28;20854;-59
2021/11/19 00:04:38;;;;;;;59.28;16.90;;;8.00;99.90;;;;;;5070860;28;20067;-58
2021/11/19 00:07:05;;;;;;;41.75;17.42;;;8.00;99.90;;;;;;5071512;28;20023;-59
2021/11/19 00:09:31;;;;;;;36.72;15.68;;;8.00;99.90;;;;;;5071550;28;20036;-59
2021/11/19 00:11:57;;;;;;;52.33;18.48;;;8.10;99.90;;;;;;5071001;28;20021;-58
2021/11/19 00:14:24;;;;;;;38.00;16.55;;;8.10;99.90;;;;;;5067559;28;20040;-57
2021/11/19 00:17:00;;;;;;;50.95;19.23;;;8.10;99.90;;;;;;5065003;28;20495;-59
2021/11/19 00:19:27;;;;;;;36.72;16.63;;;8.10;99.90;;;;;;5061668;28;20040;-58
2021/11/19 00:21:53;;;;;;;54.20;17.65;;;8.10;99.90;;;;;;5051677;28;20044;-57
2021/11/19 00:24:19;;;;;;;51.60;18.45;;;8.10;99.90;;;;;;5071350;28;20028;-58
2021/11/19 00:26:46;;;;;;;51.00;19.13;;;8.10;99.90;;;;;;5063833;28;20025;-57
2021/11/19 00:29:13;;;;;;;55.60;18.15;;;8.10;99.90;;;;;;5070320;28;20037;-57
2021/11/19 00:31:40;;;;;;;43.53;17.20;;;8.10;99.90;;;;;;5061867;28;20090;-57
2021/11/19 00:34:06;;;;;;;41.92;19.70;;;8.20;99.90;;;;;;5068560;28;20042;-57
2021/11/19 00:36:33;;;;;;;46.65;18.73;;;8.20;99.90;;;;;;5070930;28;20033;-56
2021/11/19 00:39:02;;;;;;;44.80;17.25;;;8.20;99.90;;;;;;5071773;28;20477;-55
2021/11/19 00:41:28;;;;;;;39.80;17.00;;;8.20;99.90;;;;;;5070392;28;20040;-58
2021/11/19 00:43:54;;;;;;;40.20;17.63;;;8.20;99.90;;;;;;5070517;28;20074;-57
2021/11/19 00:46:20;;;;;;;41.92;16.73;;;8.20;99.90;;;;;;5069673;28;20036;-57
2021/11/19 00:48:45;;;;;;;37.92;18.02;;;8.20;99.90;;;;;;5070487;28;20036;-59
2021/11/19 00:51:19;;;;;;;36.67;18.33;;;8.20;99.90;;;;;;5069935;28;20051;-57
2021/11/19 00:53:49;;;;;;;42.70;16.43;;;8.20;99.90;;;;;;5064372;28;20394;-58
2021/11/19 00:56:17;;;;;;;41.08;19.40;;;8.30;99.90;;;;;;5045227;28;20037;-56
2021/11/19 00:58:44;;;;;;;45.17;20.48;;;8.30;99.90;;;;;;5059505;28;20029;-60
2021/11/19 01:01:16;;;;;;;57.42;20.27;;;8.40;99.90;;;;;;5061128;28;20031;-58
2021/11/19 01:03:41;;;;;;;40.63;17.85;;;8.40;99.90;;;;;;5070209;28;20032;-58
2021/11/19 01:06:07;;;;;;;39.60;17.45;;;8.40;99.90;;;;;;5065984;28;20025;-56
2021/11/19 01:08:34;;;;;;;44.50;18.58;;;8.40;99.90;;;;;;5070104;28;20098;-57
2021/11/19 01:11:02;;;;;;;48.92;16.45;;;8.40;99.90;;;;;;5066292;28;20033;-58
2021/11/19 01:13:32;;;;;;;44.10;17.75;;;8.40;99.90;;;;;;5069849;28;20048;-52
2021/11/19 01:16:03;;;;;;;44.17;17.58;;;8.40;99.90;;;;;;5067802;28;20059;-57
2021/11/19 01:18:37;;;;;;;40.35;18.67;;;8.40;99.90;;;;;;5070550;28;20049;-54
2021/11/19 01:21:17;;;;;;;44.28;17.83;;;8.40;99.90;;;;;;5032882;28;20087;-58
2021/11/19 01:23:43;;;;;;;35.55;18.75;;;8.40;99.90;;;;;;5029888;28;20093;-60
2021/11/19 01:26:12;;;;;;;48.05;20.88;;;8.50;99.90;;;;;;5058196;28;20103;-58
2021/11/19 01:28:39;;;;;;;54.38;19.90;;;8.50;99.90;;;;;;5065831;28;20445;-59
2021/11/19 01:31:16;;;;;;;42.58;19.80;;;8.50;99.90;;;;;;5054723;28;20036;-56
2021/11/19 01:33:43;;;;;;;47.55;19.98;;;8.50;99.90;;;;;;5063056;28;20025;-59
2021/11/19 01:36:09;;;;;;;38.78;21.65;;;8.50;99.90;;;;;;5054479;28;20036;-55
2021/11/19 01:38:34;;;;;;;54.20;24.63;;;8.50;99.90;;;;;;5061032;28;20029;-57
2021/11/19 01:41:10;;;;;;;54.42;24.27;;;8.50;99.90;;;;;;5057923;28;20023;-56
2021/11/19 01:43:37;;;;;;;50.10;23.40;;;8.60;99.90;;;;;;5054898;28;20032;-57
2021/11/19 01:46:06;;;;;;;58.67;27.45;;;8.70;99.90;;;;;;5037087;28;20021;-58
2021/11/19 01:48:40;;;;;;;62.92;26.02;;;8.70;99.90;;;;;;5063916;28;20672;-55
2021/11/19 01:51:23;;;;;;;48.05;24.67;;;8.70;99.90;;;;;;5061330;28;20031;-57
2021/11/19 01:53:56;;;;;;;53.75;22.58;;;8.80;99.90;;;;;;5061832;28;20052;-57
2021/11/19 01:56:34;;;;;;;57.72;24.25;;;8.80;99.90;;;;;;5059034;28;20031;-54
2021/11/19 01:59:24;;;;;;;55.08;23.55;;;8.80;99.90;;;;;;5055846;28;20443;-55
2021/11/19 02:02:01;;;;;;;51.33;24.17;;;8.80;99.90;;;;;;5055352;28;20024;-60
2021/11/19 02:04:35;;;;;;;52.38;23.50;;;8.80;99.90;;;;;;5058859;28;20092;-59
2021/11/19 02:07:20;;;;;;;59.30;24.98;;;8.90;99.90;;;;;;5055411;28;20032;-56
2021/11/19 02:09:57;;;;;;;49.38;22.58;;;8.90;99.90;;;;;;5058437;28;20486;-58
2021/11/19 02:12:29;;;;;;;46.20;23.50;;;8.90;99.90;;;;;;5061752;28;20025;-56
2021/11/19 02:15:21;;;;;;;40.92;21.75;;;8.90;99.90;;;;;;5061937;28;20031;-54
2021/11/19 02:17:53;;;;;;;56.33;22.55;;;9.00;99.90;;;;;;5050096;28;20040;-59
2021/11/19 02:20:24;;;;;;;49.97;22.05;;;9.00;99.90;;;;;;5038071;28;20036;-57
2021/11/19 02:22:54;;;;;;;46.15;22.05;;;9.00;99.90;;;;;;5052969;28;20029;-59
2021/11/19 02:25:29;;;;;;;47.50;23.42;;;9.00;99.90;;;;;;5057075;28;21306;-56
2021/11/19 02:27:59;;;;;;;50.25;23.88;;;9.00;99.90;;;;;;5052529;28;20020;-58
2021/11/19 02:31:03;;;;;;;45.67;24.13;;;8.90;99.90;;;;;;5058225;28;20425;-55
2021/11/19 02:33:30;;;;;;;52.45;26.38;;;9.00;99.90;;;;;;5038669;28;20561;-60
2021/11/19 02:36:03;;;;;;;52.80;25.67;;;9.00;99.90;;;;;;5062000;28;20040;-56
2021/11/19 02:39:07;;;;;;;52.55;26.73;;;9.00;99.90;;;;;;5063164;28;20040;-56
2021/11/19 02:41:39;;;;;;;58.67;27.58;;;9.00;99.90;;;;;;4998881;28;20502;-61
2021/11/19 02:44:10;;;;;;;49.00;24.42;;;9.00;99.90;;;;;;5047652;28;20025;-57
2021/11/19 02:46:40;;;;;;;50.15;24.40;;;9.00;99.90;;;;;;5057274;28;20031;-57
2021/11/19 02:49:07;;;;;;;51.53;26.52;;;9.00;99.90;;;;;;5066290;28;20021;-58
2021/11/19 02:51:35;;;;;;;43.33;23.75;;;9.00;99.90;;;;;;5063403;28;20025;-57
2021/11/19 02:54:03;;;;;;;57.45;26.13;;;9.00;99.90;;;;;;5062795;28;20025;-57
2021/11/19 02:56:28;;;;;;;54.78;24.30;;;9.00;99.90;;;;;;5057474;28;20033;-60
2021/11/19 02:58:56;;;;;;;50.42;25.25;;;9.00;99.90;;;;;;5064051;28;20050;-55
2021/11/19 03:01:27;;;;;;;60.65;29.33;;;9.00;99.90;;;;;;5060574;28;20045;-57
2021/11/19 03:04:05;;;;;;;67.78;27.48;;;9.00;99.90;;;;;;5062566;28;20012;-56
2021/11/19 03:06:34;;;;;;;63.45;29.27;;;9.00;99.90;;;;;;5061034;28;20516;-58
2021/11/19 03:09:00;;;;;;;59.20;29.40;;;9.00;99.90;;;;;;5068305;28;20052;-58
2021/11/19 03:11:25;;;;;;;61.30;29.10;;;9.00;99.90;;;;;;5059564;28;20497;-59
2021/11/19 03:13:52;;;;;;;58.55;29.13;;;9.00;99.90;;;;;;5067636;28;20024;-59
2021/11/19 03:16:17;;;;;;;58.22;27.52;;;9.00;99.90;;;;;;5050609;28;20024;-60
2021/11/19 03:18:43;;;;;;;62.83;29.25;;;9.00;99.90;;;;;;5069558;28;20039;-57
2021/11/19 03:21:15;;;;;;;60.58;27.67;;;9.00;99.90;;;;;;5050240;28;20048;-59
2021/11/19 03:23:41;;;;;;;58.50;27.75;;;9.00;99.90;;;;;;5062346;28;20375;-60
2021/11/19 03:26:06;;;;;;;57.63;29.15;;;9.00;99.90;;;;;;5066062;28;20058;-52
2021/11/19 03:28:32;;;;;;;56.53;26.55;;;9.00;99.90;;;;;;5059560;28;20036;-53
2021/11/19 03:31:02;;;;;;;64.85;26.95;;;9.00;99.90;;;;;;5044590;28;20091;-52
2021/11/19 03:33:30;;;;;;;61.03;24.92;;;9.00;99.90;;;;;;5043262;28;20058;-57
2021/11/19 03:35:56;;;;;;;59.78;26.45;;;9.00;99.90;;;;;;5065792;28;20100;-56
2021/11/19 03:38:24;;;;;;;64.85;28.25;;;9.00;99.90;;;;;;5068175;28;20159;-59
2021/11/19 03:40:52;;;;;;;68.50;28.67;;;9.00;99.90;;;;;;5066356;28;20017;-57
2021/11/19 03:43:26;;;;;;;61.10;28.67;;;9.00;99.90;;;;;;5061889;28;20033;-59
2021/11/19 03:45:58;;;;;;;62.28;30.88;;;9.00;99.90;;;;;;5062597;28;20588;-54
2021/11/19 03:48:26;;;;;;;71.63;32.42;;;9.00;99.90;;;;;;5064545;28;20029;-59
2021/11/19 03:50:57;;;;;;;61.78;30.70;;;9.00;99.90;;;;;;5060582;28;20033;-58
2021/11/19 03:53:24;;;;;;;64.88;27.58;;;9.00;99.90;;;;;;5061628;28;20020;-49
2021/11/19 03:55:51;;;;;;;72.47;29.38;;;9.00;99.90;;;;;;5062305;28;20473;-59
2021/11/19 03:58:21;;;;;;;66.47;29.67;;;9.00;99.90;;;;;;5066492;28;20032;-56
2021/11/19 04:01:03;;;;;;;73.10;30.08;;;9.00;99.90;;;;;;5061914;28;20017;-59
2021/11/19 04:03:29;;;;;;;57.70;28.20;;;9.00;99.90;;;;;;5064776;28;20029;-56
2021/11/19 04:05:56;;;;;;;56.90;27.42;;;9.10;99.90;;;;;;5064524;28;20098;-56
2021/11/19 04:08:22;;;;;;;54.97;27.02;;;9.10;99.90;;;;;;5061650;28;20029;-57
2021/11/19 04:10:49;;;;;;;61.33;27.52;;;9.10;99.90;;;;;;5062453;28;20033;-56
2021/11/19 04:13:15;;;;;;;67.60;28.92;;;9.00;99.90;;;;;;5058669;28;20047;-57
2021/11/19 04:15:46;;;;;;;50.22;27.10;;;9.10;99.90;;;;;;5063358;28;20029;-56
2021/11/19 04:18:12;;;;;;;53.42;26.88;;;9.10;99.90;;;;;;5067599;28;20036;-54
2021/11/19 04:20:40;;;;;;;48.40;25.30;;;9.10;99.90;;;;;;5063187;28;20039;-60
2021/11/19 04:23:06;;;;;;;53.88;26.80;;;9.10;99.90;;;;;;5048573;28;20040;-61
2021/11/19 04:25:33;;;;;;;48.05;24.67;;;9.10;99.90;;;;;;5066589;28;20047;-60
2021/11/19 04:27:59;;;;;;;50.25;23.30;;;9.10;99.90;;;;;;5064471;28;20024;-58
2021/11/19 04:30:28;;;;;;;47.53;24.48;;;9.10;99.90;;;;;;5069376;28;20114;-60
2021/11/19 04:32:55;;;;;;;52.08;23.10;;;9.10;99.90;;;;;;5047508;28;20111;-59
2021/11/19 04:35:21;;;;;;;42.83;21.55;;;9.10;99.90;;;;;;5062599;28;20033;-58
2021/11/19 04:37:48;;;;;;;37.72;20.02;;;9.10;99.90;;;;;;5069178;28;20104;-60
2021/11/19 04:40:15;;;;;;;42.33;20.77;;;9.10;99.90;;;;;;5053510;28;20078;-59
2021/11/19 04:42:41;;;;;;;41.15;19.13;;;9.10;99.90;;;;;;5065022;28;20025;-61
2021/11/19 04:45:09;;;;;;;29.60;16.70;;;9.10;99.90;;;;;;5067132;28;20043;-56
2021/11/19 04:47:35;;;;;;;49.70;17.45;;;9.20;99.90;;;;;;5063155;28;20093;-60
2021/11/19 04:50:01;;;;;;;32.78;17.13;;;9.20;99.90;;;;;;5060713;28;20032;-57
2021/11/19 04:52:26;;;;;;;29.83;16.58;;;9.20;99.90;;;;;;5063817;28;20085;-52
2021/11/19 04:54:52;;;;;;;35.55;18.15;;;9.20;99.90;;;;;;5062545;28;20159;-58
2021/11/19 04:57:18;;;;;;;38.03;16.02;;;9.20;99.90;;;;;;5069100;28;20036;-58
2021/11/19 04:59:44;;;;;;;30.08;15.98;;;9.20;99.90;;;;;;5062230;28;20067;-58
2021/11/19 05:02:14;;;;;;;33.17;17.15;;;9.20;99.90;;;;;;5063053;28;20033;-59
2021/11/19 05:04:40;;;;;;;35.75;17.95;;;9.10;99.90;;;;;;5061383;28;20025;-57
2021/11/19 05:07:06;;;;;;;34.20;16.52;;;9.20;99.90;;;;;;5062687;28;20036;-58
2021/11/19 05:09:32;;;;;;;35.88;17.88;;;9.20;99.90;;;;;;5060402;28;20035;-57
2021/11/19 05:12:09;;;;;;;34.30;19.10;;;9.20;99.90;;;;;;5061277;28;20444;-59
2021/11/19 05:14:35;;;;;;;38.72;19.92;;;9.20;99.90;;;;;;5063349;28;20082;-57
2021/11/19 05:17:03;;;;;;;35.90;19.42;;;9.20;99.90;;;;;;5061404;28;20047;-60
2021/11/19 05:19:30;;;;;;;37.03;20.20;;;9.20;99.90;;;;;;5060955;28;20048;-60
2021/11/19 05:21:56;;;;;;;35.38;18.10;;;9.20;99.90;;;;;;5046451;28;20591;-57
2021/11/19 05:24:22;;;;;;;32.97;18.50;;;9.20;99.90;;;;;;5064897;28;20025;-60
2021/11/19 05:26:49;;;;;;;32.63;17.35;;;9.20;99.90;;;;;;5061138;28;20451;-60
2021/11/19 05:29:17;;;;;;;37.55;18.27;;;9.20;99.90;;;;;;5068257;28;20056;-61
2021/11/19 05:31:44;;;;;;;31.85;17.52;;;9.20;99.90;;;;;;5061946;28;20077;-57
2021/11/19 05:34:11;;;;;;;39.60;17.02;;;9.20;99.90;;;;;;5063338;28;20040;-57
2021/11/19 05:36:37;;;;;;;29.80;16.00;;;9.20;99.90;;;;;;5061475;28;20469;-56
2021/11/19 05:39:03;;;;;;;38.65;18.38;;;9.20;99.90;;;;;;5070150;28;20028;-56
2021/11/19 05:41:30;;;;;;;37.25;18.02;;;9.20;99.90;;;;;;5069787;28;20435;-57
2021/11/19 05:43:56;;;;;;;45.83;18.92;;;9.20;99.90;;;;;;5060269;28;20028;-57
2021/11/19 05:46:25;;;;;;;45.38;18.88;;;9.20;99.90;;;;;;5066168;28;20028;-54
2021/11/19 05:48:54;;;;;;;40.70;18.35;;;9.20;99.90;;;;;;5063376;28;20039;-59
2021/11/19 05:51:21;;;;;;;43.13;19.00;;;9.20;99.90;;;;;;5062072;28;20036;-57
2021/11/19 05:53:48;;;;;;;40.30;18.52;;;9.20;99.90;;;;;;5064181;28;20027;-57
2021/11/19 05:56:14;;;;;;;54.70;19.95;;;9.20;99.90;;;;;;5061815;28;20086;-57
2021/11/19 05:58:40;;;;;;;45.03;19.58;;;9.20;99.90;;;;;;5061402;28;20024;-59
2021/11/19 06:01:11;;;;;;;40.55;20.85;;;9.20;99.90;;;;;;5059257;28;20046;-59
2021/11/19 06:03:39;;;;;;;64.90;28.90;;;9.20;99.90;;;;;;5062747;28;20055;-56
2021/11/19 06:06:09;;;;;;;51.17;22.13;;;9.20;99.90;;;;;;5063775;28;20028;-58
2021/11/19 06:08:38;;;;;;;113.18;47.83;;;9.20;99.90;;;;;;5058496;28;20088;-60
2021/11/19 06:11:11;;;;;;;66.00;28.98;;;9.20;99.90;;;;;;5063871;28;20060;-58
2021/11/19 06:13:44;;;;;;;58.15;29.63;;;9.20;99.90;;;;;;5063050;28;20036;-56
2021/11/19 06:16:15;;;;;;;72.95;37.00;;;9.20;99.90;;;;;;5061975;28;20035;-53
2021/11/19 06:18:46;;;;;;;73.20;34.83;;;9.20;99.90;;;;;;5058722;28;20049;-59
2021/11/19 06:21:17;;;;;;;48.90;23.95;;;9.20;99.90;;;;;;5061582;28;20082;-58
2021/11/19 06:23:47;;;;;;;54.53;25.65;;;9.20;99.90;;;;;;5045019;28;20041;-58
2021/11/19 06:26:17;;;;;;;51.28;26.25;;;9.20;99.90;;;;;;5064143;28;20031;-58
2021/11/19 06:28:46;;;;;;;62.97;26.50;;;9.20;99.90;;;;;;5060354;28;20112;-58
2021/11/19 06:31:14;;;;;;;50.63;21.55;;;9.20;99.90;;;;;;5060157;28;20039;-61
2021/11/19 06:33:40;;;;;;;43.42;19.83;;;9.20;99.90;;;;;;5063002;28;20028;-60
2021/11/19 06:36:08;;;;;;;50.53;22.50;;;9.20;99.90;;;;;;5061803;28;20054;-54
2021/11/19 06:38:34;;;;;;;49.45;22.15;;;9.20;99.90;;;;;;5058581;28;20056;-58
2021/11/19 06:41:00;;;;;;;45.35;21.95;;;9.20;99.90;;;;;;5061701;28;20028;-58
2021/11/19 06:43:26;;;;;;;48.75;22.98;;;9.20;99.90;;;;;;5060305;28;20507;-58
2021/11/19 06:45:52;;;;;;;42.88;20.55;;;9.20;99.90;;;;;;5061491;28;20028;-60
2021/11/19 06:48:18;;;;;;;51.47;23.33;;;9.20;99.90;;;;;;5063925;28;20032;-58
2021/11/19 06:50:44;;;;;;;54.60;27.05;;;9.20;99.90;;;;;;5062274;28;20037;-58
2021/11/19 06:53:12;;;;;;;65.63;28.75;;;9.20;99.90;;;;;;5061142;28;20032;-57
2021/11/19 06:55:38;;;;;;;58.35;26.77;;;9.20;99.90;;;;;;5058941;28;20098;-57
2021/11/19 06:58:06;;;;;;;74.00;33.38;;;9.20;99.90;;;;;;5064677;28;20064;-54
2021/11/19 07:00:40;;;;;;;64.03;32.33;;;9.20;99.90;;;;;;5038485;28;20079;-57
2021/11/19 07:03:06;;;;;;;58.65;26.15;;;9.20;99.90;;;;;;5060171;28;20029;-57
2021/11/19 07:05:33;;;;;;;62.90;28.88;;;9.20;99.90;;;;;;5064275;28;20379;-55
2021/11/19 07:08:01;;;;;;;83.55;30.25;;;9.30;99.90;;;;;;5050344;28;20468;-60
2021/11/19 07:10:28;;;;;;;50.80;23.98;;;9.30;99.90;;;;;;5068783;28;20051;-58
2021/11/19 07:12:54;;;;;;;52.28;21.25;;;9.30;99.90;;;;;;5063191;28;20508;-59
2021/11/19 07:15:20;;;;;;;59.03;22.95;;;9.30;99.90;;;;;;5062302;28;20036;-58
2021/11/19 07:17:46;;;;;;;44.67;21.83;;;9.30;99.90;;;;;;5056138;28;20557;-60
2021/11/19 07:20:15;;;;;;;57.95;27.67;;;9.30;99.90;;;;;;5066999;28;20032;-58
2021/11/19 07:22:41;;;;;;;63.67;25.35;;;9.30;99.90;;;;;;5048047;28;20070;-55
2021/11/19 07:25:10;;;;;;;88.57;27.25;;;9.30;99.90;;;;;;5061748;28;20032;-59
2021/11/19 07:27:35;;;;;;;87.68;40.70;;;9.30;99.90;;;;;;5062017;28;20036;-59
2021/11/19 07:30:04;;;;;;;108.50;48.63;;;9.30;99.90;;;;;;5066491;28;20094;-60
2021/11/19 07:32:30;;;;;;;93.15;37.28;;;9.30;99.90;;;;;;5065354;28;20021;-57
2021/11/19 07:34:55;;;;;;;93.53;43.75;;;9.30;99.90;;;;;;5067372;28;20425;-59
2021/11/19 07:37:23;;;;;;;94.13;45.70;;;9.30;99.90;;;;;;5071307;28;20099;-58
2021/11/19 07:39:51;;;;;;;106.60;40.90;;;9.30;99.90;;;;;;5069915;28;20103;-58
2021/11/19 07:42:16;;;;;;;65.78;30.10;;;9.30;99.90;;;;;;5062597;28;20064;-56
2021/11/19 07:44:42;;;;;;;89.35;37.22;;;9.30;99.90;;;;;;5065209;28;20064;-59
2021/11/19 07:47:08;;;;;;;81.80;36.97;;;9.30;99.90;;;;;;5065216;28;20028;-61
2021/11/19 07:49:34;;;;;;;85.43;33.30;;;9.30;99.90;;;;;;5064952;28;20048;-58
2021/11/19 07:51:59;;;;;;;54.88;27.15;;;9.30;99.90;;;;;;5065606;28;20087;-59
2021/11/19 07:54:25;;;;;;;54.38;26.10;;;9.30;99.90;;;;;;5062769;28;20595;-57
2021/11/19 07:56:51;;;;;;;49.45;26.23;;;9.40;99.90;;;;;;5063317;28;20108;-55
2021/11/19 07:59:22;;;;;;;59.53;26.00;;;9.40;99.90;;;;;;5066582;28;20438;-58
2021/11/19 08:01:49;;;;;;;60.40;26.75;;;9.40;99.90;;;;;;5070568;28;20035;-59
2021/11/19 08:04:16;;;;;;;66.57;32.13;;;9.40;99.90;;;;;;5089249;28;20032;-58
2021/11/19 08:06:43;;;;;;;63.60;31.48;;;9.40;99.90;;;;;;5082305;28;20028;-60
2021/11/19 08:09:10;;;;;;;46.90;27.02;;;9.40;99.90;;;;;;5079859;28;20507;-61
2021/11/19 08:11:36;;;;;;;43.50;22.92;;;9.40;99.90;;;;;;5083574;28;20024;-60
2021/11/19 08:14:03;;;;;;;51.42;24.00;;;9.40;99.90;;;;;;5083071;28;20043;-58
2021/11/19 08:16:36;;;;;;;40.03;21.20;;;9.50;99.90;;;;;;5091315;28;20119;-57
2021/11/19 08:19:04;;;;;;;38.42;19.65;;;9.50;99.90;;;;;;5087970;28;20024;-59
2021/11/19 08:21:30;;;;;;;39.88;18.45;;;9.50;99.90;;;;;;5081324;28;20078;-60
2021/11/19 08:24:03;;;;;;;37.83;20.67;;;9.50;99.90;;;;;;5066919;28;20131;-56
2021/11/19 08:26:36;;;;;;;40.13;19.05;;;9.50;99.90;;;;;;5066687;28;20496;-56
2021/11/19 08:29:04;;;;;;;47.22;18.67;;;9.60;99.90;;;;;;5066584;28;20028;-56
2021/11/19 08:31:30;;;;;;;31.50;17.88;;;9.60;99.90;;;;;;5065117;28;20062;-57
2021/11/19 08:33:55;;;;;;;34.35;18.90;;;9.60;99.90;;;;;;5085721;28;20060;-57
2021/11/19 08:36:24;;;;;;;31.65;17.95;;;9.60;99.90;;;;;;5088603;28;20024;-60
2021/11/19 08:38:50;;;;;;;34.17;18.27;;;9.60;99.90;;;;;;5081866;28;20026;-60
2021/11/19 08:41:17;;;;;;;34.15;18.67;;;9.70;99.90;;;;;;5082402;28;20036;-60
2021/11/19 08:43:45;;;;;;;34.00;17.02;;;9.70;99.90;;;;;;5085249;28;20024;-58
2021/11/19 08:46:19;;;;;;;31.67;18.17;;;9.70;99.90;;;;;;5081230;28;20028;-57
2021/11/19 08:48:49;;;;;;;53.40;28.15;;;9.70;99.90;;;;;;5082763;28;20358;-60
2021/11/19 08:51:19;;;;;;;50.95;24.08;;;9.70;99.90;;;;;;5082707;28;20024;-57
2021/11/19 08:53:46;;;;;;;36.35;16.83;;;9.70;99.90;;;;;;5091220;28;20024;-58
2021/11/19 08:56:12;;;;;;;31.60;18.02;;;9.70;99.90;;;;;;5090602;28;20032;-51
2021/11/19 08:58:41;;;;;;;28.30;15.25;;;9.70;99.90;;;;;;5091632;28;20089;-58
2021/11/19 09:01:08;;;;;;;112.93;63.15;;;9.70;99.90;;;;;;5086274;28;20028;-61
2021/11/19 09:03:36;;;;;;;60.90;32.58;;;9.70;99.90;;;;;;5082455;28;20113;-60
2021/11/19 09:06:03;;;;;;;61.45;34.78;;;9.80;99.90;;;;;;5081722;28;20025;-59
2021/11/19 09:08:29;;;;;;;57.20;32.20;;;9.80;99.90;;;;;;5088510;28;20031;-59
2021/11/19 09:10:57;;;;;;;45.13;28.60;;;9.80;99.90;;;;;;5090666;28;20488;-58
2021/11/19 09:13:23;;;;;;;56.92;31.58;;;9.80;99.90;;;;;;5085727;28;20038;-57
2021/11/19 09:15:50;;;;;;;66.82;37.10;;;9.80;99.90;;;;;;5083964;28;20059;-57
2021/11/19 09:18:34;;;;;;;71.93;46.33;;;9.80;99.90;;;;;;5085571;28;20506;-57
2021/11/19 09:21:17;;;;;;;55.97;31.05;;;9.80;99.90;;;;;;5084449;28;20504;-57
2021/11/19 09:23:55;;;;;;;90.73;45.40;;;9.80;99.90;;;;;;5067804;28;20089;-60
2021/11/19 09:26:31;;;;;;;65.85;38.25;;;9.80;99.90;;;;;;5086953;28;20073;-60
2021/11/19 09:28:59;;;;;;;69.10;38.92;;;9.80;99.90;;;;;;5084231;28;20123;-59
2021/11/19 09:31:25;;;;;;;38.72;23.88;;;9.90;99.90;;;;;;5064963;28;20044;-60
2021/11/19 09:33:51;;;;;;;33.03;18.15;;;9.90;99.90;;;;;;5087964;28;20056;-60
2021/11/19 09:36:18;;;;;;;25.13;15.63;;;9.90;99.90;;;;;;5091193;28;20448;-58
2021/11/19 09:38:45;;;;;;;26.17;15.65;;;10.00;99.90;;;;;;5089436;28;20489;-59
2021/11/19 09:41:13;;;;;;;27.33;16.27;;;10.00;99.90;;;;;;5090701;28;20439;-58
2021/11/19 09:43:46;;;;;;;33.20;21.45;;;10.00;99.90;;;;;;5077125;28;20043;-57
2021/11/19 09:46:52;;;;;;;24.02;15.70;;;10.00;99.90;;;;;;5084985;28;20021;-56
2021/11/19 09:49:39;;;;;;;43.33;23.67;;;10.00;99.90;;;;;;5062092;28;20024;-57
2021/11/19 09:52:19;;;;;;;28.80;18.25;;;10.10;99.90;;;;;;5089330;28;20067;-60
2021/11/19 09:55:22;;;;;;;36.60;19.23;;;10.10;99.90;;;;;;5078738;28;20180;-57
2021/11/19 09:58:09;;;;;;;36.65;22.30;;;10.10;99.90;;;;;;5081654;28;20020;-57
2021/11/19 10:00:48;;;;;;;32.80;19.70;;;10.10;99.90;;;;;;5082566;28;20027;-60
2021/11/19 10:03:45;;;;;;;25.55;15.75;;;10.10;99.90;;;;;;5080543;28;20032;-59
2021/11/19 10:06:27;;;;;;;23.58;14.27;;;10.10;99.90;;;;;;5074705;28;20060;-56
2021/11/19 10:09:03;;;;;;;19.77;13.35;;;10.10;99.90;;;;;;5087549;28;20044;-59
2021/11/19 10:11:59;;;;;;;22.92;15.02;;;10.20;99.90;;;;;;5078523;28;20020;-59
2021/11/19 10:14:31;;;;;;;21.13;14.32;;;10.20;99.90;;;;;;5072745;28;20036;-61
2021/11/19 10:17:21;;;;;;;23.52;13.98;;;10.20;99.90;;;;;;5082980;28;20111;-56
2021/11/19 10:19:58;;;;;;;19.67;13.38;;;10.20;99.90;;;;;;5086887;28;20027;-57
2021/11/19 10:22:37;;;;;;;21.65;13.88;;;10.20;99.90;;;;;;5062752;28;20306;-58
2021/11/19 10:25:15;;;;;;;18.02;11.90;;;10.20;99.90;;;;;;5074549;28;20028;-57
2021/11/19 10:27:48;;;;;;;19.88;13.18;;;10.20;99.90;;;;;;5085889;28;20028;-60
2021/11/19 10:30:45;;;;;;;22.30;13.82;;;10.20;99.90;;;;;;5087847;28;20036;-53
2021/11/19 10:33:14;;;;;;;23.98;14.75;;;10.20;99.90;;;;;;5082494;28;20040;-60
2021/11/19 10:36:01;;;;;;;22.02;14.27;;;10.20;99.90;;;;;;5085105;28;20142;-55
2021/11/19 10:38:27;;;;;;;23.00;15.13;;;10.20;99.90;;;;;;5083041;28;20047;-56
2021/11/19 10:41:20;;;;;;;23.35;15.90;;;10.20;99.90;;;;;;5082161;28;20405;-58
2021/11/19 10:44:18;;;;;;;25.45;15.48;;;10.30;99.90;;;;;;5080551;28;20028;-59
2021/11/19 10:47:17;;;;;;;24.08;15.82;;;10.30;99.90;;;;;;5081090;28;20020;-59
2021/11/19 10:49:43;;;;;;;28.38;16.45;;;10.30;99.90;;;;;;5089191;28;20082;-57
2021/11/19 10:52:33;;;;;;;22.13;15.77;;;10.30;99.90;;;;;;5084420;28;20493;-59
2021/11/19 10:55:20;;;;;;;25.17;16.27;;;10.30;99.90;;;;;;5086307;28;20099;-58
2021/11/19 10:57:58;;;;;;;25.33;17.52;;;10.30;99.90;;;;;;5082569;28;20048;-59
2021/11/19 11:00:24;;;;;;;24.58;16.42;;;10.30;99.90;;;;;;5086773;28;20028;-58
2021/11/19 11:02:54;;;;;;;28.27;16.77;;;10.40;99.90;;;;;;5087989;28;20035;-57
2021/11/19 11:05:25;;;;;;;30.83;17.60;;;10.40;99.90;;;;;;5089070;28;20082;-57
2021/11/19 11:08:05;;;;;;;28.00;18.02;;;10.40;99.90;;;;;;5084066;28;20027;-58
2021/11/19 11:10:47;;;;;;;26.88;16.98;;;10.40;99.90;;;;;;5087250;28;20027;-57
2021/11/19 11:13:43;;;;;;;25.25;16.25;;;10.40;99.90;;;;;;5086786;28;20059;-57
2021/11/19 11:16:18;;;;;;;31.38;16.55;;;10.50;99.90;;;;;;5086268;28;20111;-57
2021/11/19 11:19:13;;;;;;;23.98;16.55;;;10.50;99.90;;;;;;5088600;28;20036;-57
2021/11/19 11:21:50;;;;;;;29.63;18.17;;;10.50;99.90;;;;;;5086166;28;20033;-59
2021/11/19 11:24:27;;;;;;;27.48;18.23;;;10.50;99.90;;;;;;5072742;28;20147;-56
2021/11/19 11:26:55;;;;;;;23.55;15.25;;;10.60;99.90;;;;;;5075755;28;20081;-54
2021/11/19 11:29:28;;;;;;;20.77;14.38;;;10.60;99.90;;;;;;5076877;28;20032;-59
2021/11/19 11:32:34;;;;;;;20.65;15.77;;;10.60;99.90;;;;;;5084569;28;20039;-55
2021/11/19 11:35:17;;;;;;;21.13;14.70;;;10.60;99.90;;;;;;5076050;28;20048;-58
2021/11/19 11:38:00;;;;;;;23.48;14.48;;;10.60;99.90;;;;;;5082287;28;20114;-58
2021/11/19 11:40:51;;;;;;;20.95;14.95;;;10.60;99.90;;;;;;5086378;28;20035;-59
2021/11/19 11:43:29;;;;;;;17.70;12.98;;;10.60;99.90;;;;;;5076330;28;20028;-58
2021/11/19 11:46:17;;;;;;;20.45;15.07;;;10.60;99.90;;;;;;5085233;28;20024;-57
2021/11/19 11:48:58;;;;;;;21.35;15.90;;;10.60;99.90;;;;;;5069115;28;20036;-53
2021/11/19 11:51:49;;;;;;;19.25;14.38;;;10.60;99.90;;;;;;5085281;28;20077;-57
2021/11/19 11:54:15;;;;;;;21.40;12.63;;;10.60;99.90;;;;;;5038239;28;20048;-51
2021/11/19 11:56:44;;;;;;;18.88;12.45;;;10.60;99.90;;;;;;5088104;28;20020;-58
2021/11/19 11:59:31;;;;;;;20.08;12.23;;;10.60;99.90;;;;;;5081536;28;20021;-57
2021/11/19 12:02:00;;;;;;;21.10;13.23;;;10.60;99.90;;;;;;5078314;28;20089;-59
2021/11/19 12:04:57;;;;;;;18.70;13.48;;;10.60;99.90;;;;;;5087202;28;20085;-58
2021/11/19 12:07:41;;;;;;;17.88;12.38;;;10.60;99.90;;;;;;5078580;28;20032;-56
2021/11/19 12:10:31;;;;;;;20.83;12.95;;;10.70;99.90;;;;;;5078265;28;20069;-57
2021/11/19 12:13:06;;;;;;;17.17;12.77;;;10.70;99.90;;;;;;5087663;28;20035;-56
2021/11/19 12:16:12;;;;;;;20.67;12.52;;;10.70;99.90;;;;;;5090515;28;20449;-58
2021/11/19 12:18:52;;;;;;;19.98;12.93;;;10.70;99.90;;;;;;5065211;28;20039;-56
2021/11/19 12:21:25;;;;;;;18.85;13.60;;;10.70;99.90;;;;;;5088577;28;20035;-58
2021/11/19 12:24:14;;;;;;;21.33;14.43;;;10.80;99.90;;;;;;5069111;28;20055;-59
2021/11/19 12:26:58;;;;;;;22.17;14.07;;;10.80;99.90;;;;;;5082667;28;20035;-57
2021/11/19 12:29:24;;;;;;;24.10;14.68;;;10.80;99.90;;;;;;5073955;28;20024;-54
2021/11/19 12:32:23;;;;;;;20.30;14.25;;;10.80;99.90;;;;;;5075793;28;20024;-55
2021/11/19 12:35:08;;;;;;;28.42;15.38;;;10.80;99.90;;;;;;5058327;28;20363;-58
2021/11/19 12:37:56;;;;;;;21.48;12.88;;;10.80;99.90;;;;;;5076446;28;20028;-53
2021/11/19 12:40:29;;;;;;;23.35;13.52;;;10.80;99.90;;;;;;5061067;28;20040;-55
2021/11/19 12:43:13;;;;;;;19.25;13.20;;;10.80;99.90;;;;;;5071147;28;20048;-59
2021/11/19 12:45:45;;;;;;;21.73;12.18;;;10.80;99.90;;;;;;5079958;28;20058;-57
2021/11/19 12:48:39;;;;;;;17.40;12.68;;;10.80;99.90;;;;;;5075104;28;20051;-57
2021/11/19 12:51:26;;;;;;;15.77;12.23;;;10.80;99.90;;;;;;5088214;28;20500;-57
2021/11/19 12:54:28;;;;;;;19.30;13.75;;;10.80;99.90;;;;;;5090426;28;20065;-56
2021/11/19 12:57:12;;;;;;;18.50;13.13;;;10.80;99.90;;;;;;5088878;28;20028;-54
2021/11/19 12:59:52;;;;;;;21.80;13.57;;;10.80;99.90;;;;;;5085778;28;20025;-57